createdAt,value
2022-12-05T00:00:42.752Z,3.72
2022-12-05T00:01:42.838Z,3.75
2022-12-05T00:02:42.718Z,3.76
2022-12-05T00:03:42.752Z,3.76
2022-12-05T00:04:42.795Z,3.75
2022-12-05T00:05:42.961Z,3.75
2022-12-05T00:06:42.668Z,3.75
2022-12-05T00:07:42.747Z,3.75
2022-12-05T00:08:42.651Z,3.72
2022-12-05T00:09:42.648Z,3.76
2022-12-05T00:10:42.628Z,3.72
2022-12-05T00:11:43.002Z,3.72
2022-12-05T00:12:42.598Z,3.72
2022-12-05T00:13:42.791Z,3.72
2022-12-05T00:14:42.581Z,3.76
2022-12-05T00:15:42.579Z,3.78
2022-12-05T00:16:42.590Z,3.78
2022-12-05T00:17:42.533Z,3.78
2022-12-05T00:18:42.522Z,3.76
2022-12-05T00:19:42.731Z,3.78
2022-12-05T00:20:42.483Z,3.79
2022-12-05T00:21:42.879Z,3.78
2022-12-05T00:22:42.488Z,3.78
2022-12-05T00:23:42.490Z,3.78
2022-12-05T00:25:53.458Z,3.82
2022-12-05T00:26:54.112Z,3.83
2022-12-05T00:27:53.635Z,3.83
2022-12-05T00:28:53.423Z,3.82
2022-12-05T00:29:53.423Z,3.80
2022-12-05T00:30:53.433Z,3.79
2022-12-05T00:31:53.427Z,3.80
2022-12-05T00:32:53.359Z,3.80
2022-12-05T00:33:53.385Z,3.80
2022-12-05T00:34:53.357Z,3.80
2022-12-05T00:35:53.357Z,3.79
2022-12-05T00:36:53.308Z,3.79
2022-12-05T00:37:53.316Z,3.78
2022-12-05T00:38:53.313Z,3.78
2022-12-05T00:39:53.315Z,3.80
2022-12-05T00:40:53.285Z,3.80
2022-12-05T00:41:53.314Z,3.79
2022-12-05T00:42:53.277Z,3.80
2022-12-05T00:43:53.239Z,3.79
2022-12-05T00:44:53.255Z,3.79
2022-12-05T00:45:53.289Z,3.82
2022-12-05T00:46:53.696Z,3.82
2022-12-05T00:47:53.226Z,3.80
2022-12-05T00:48:53.203Z,3.79
2022-12-05T00:49:53.177Z,3.79
2022-12-05T00:50:53.186Z,3.79
2022-12-05T00:51:53.207Z,3.78
2022-12-05T00:52:53.167Z,3.76
2022-12-05T00:53:53.137Z,3.76
2022-12-05T00:54:53.246Z,3.75
2022-12-05T00:55:53.133Z,3.72
2022-12-05T00:56:53.110Z,3.72
2022-12-05T00:57:53.089Z,3.71
2022-12-05T00:58:53.088Z,3.70
2022-12-05T00:59:53.060Z,3.70
2022-12-05T01:00:53.069Z,3.71
2022-12-05T01:01:53.177Z,3.71
2022-12-05T01:02:53.076Z,3.68
2022-12-05T01:03:53.038Z,3.70
2022-12-05T01:04:53.018Z,3.71
2022-12-05T01:05:53.017Z,3.70
2022-12-05T01:06:52.999Z,3.70
2022-12-05T01:07:53.188Z,3.68
2022-12-05T01:08:52.951Z,3.67
2022-12-05T01:09:52.976Z,3.67
2022-12-05T01:10:52.921Z,3.65
2022-12-05T01:11:53.133Z,3.67
2022-12-05T01:12:52.903Z,3.68
2022-12-05T01:13:52.902Z,3.65
2022-12-05T01:14:52.911Z,3.64
2022-12-05T01:15:52.909Z,3.62
2022-12-05T01:16:53.362Z,3.62
2022-12-05T01:17:52.881Z,3.64
2022-12-05T01:18:52.859Z,3.65
2022-12-05T01:19:52.860Z,3.68
2022-12-05T01:20:52.844Z,3.70
2022-12-05T01:21:52.840Z,3.70
2022-12-05T01:22:53.129Z,3.70
2022-12-05T01:23:52.792Z,3.72
2022-12-05T01:24:52.792Z,3.70
2022-12-05T01:25:52.763Z,3.70
2022-12-05T01:26:52.954Z,3.71
2022-12-05T01:27:52.770Z,3.71
2022-12-05T01:28:52.995Z,3.70
2022-12-05T01:29:52.740Z,3.71
2022-12-05T01:30:52.704Z,3.72
2022-12-05T01:31:52.990Z,3.75
2022-12-05T01:32:52.701Z,3.72
2022-12-05T01:33:52.675Z,3.71
2022-12-05T01:34:52.881Z,3.75
2022-12-05T01:35:52.656Z,3.75
2022-12-05T01:36:52.976Z,3.75
2022-12-05T01:37:52.636Z,3.75
2022-12-05T01:38:52.605Z,3.72
2022-12-05T01:39:52.631Z,3.75
2022-12-05T01:40:52.612Z,3.72
2022-12-05T01:41:52.785Z,3.71
2022-12-05T01:42:52.582Z,3.71
2022-12-05T01:43:52.584Z,3.71
2022-12-05T01:44:52.537Z,3.72
2022-12-05T01:45:52.616Z,3.72
2022-12-05T01:46:52.514Z,3.76
2022-12-05T01:47:52.754Z,3.75
2022-12-05T01:48:52.543Z,3.72
2022-12-05T01:49:52.526Z,3.71
2022-12-05T01:50:52.501Z,3.71
2022-12-05T01:51:52.494Z,3.72
2022-12-05T01:52:52.451Z,3.76
2022-12-05T01:53:52.657Z,3.75
2022-12-05T01:54:52.444Z,3.72
2022-12-05T01:55:52.454Z,3.71
2022-12-05T01:56:52.420Z,3.71
2022-12-05T01:57:52.397Z,3.75
2022-12-05T01:58:52.403Z,3.76
2022-12-05T01:59:52.667Z,3.76
2022-12-05T02:00:52.416Z,3.75
2022-12-05T02:01:52.406Z,3.75
2022-12-05T02:02:52.393Z,3.75
2022-12-05T02:03:52.355Z,3.75
2022-12-05T02:04:52.313Z,3.76
2022-12-05T02:05:52.674Z,3.76
2022-12-05T02:06:52.315Z,3.76
2022-12-05T02:07:52.336Z,3.76
2022-12-05T02:08:52.286Z,3.75
2022-12-05T02:09:52.515Z,3.75
2022-12-05T02:10:52.265Z,3.71
2022-12-05T02:11:52.247Z,3.72
2022-12-05T02:12:52.247Z,3.71
2022-12-05T02:13:52.223Z,3.72
2022-12-05T02:14:52.189Z,3.72
2022-12-05T02:15:56.985Z,3.78
2022-12-05T02:16:52.237Z,3.78
2022-12-05T02:17:52.197Z,3.78
2022-12-05T02:18:52.179Z,3.78
2022-12-05T02:19:52.350Z,3.76
2022-12-05T02:20:52.131Z,3.76
2022-12-05T02:21:52.131Z,3.76
2022-12-05T02:22:52.121Z,3.75
2022-12-05T02:23:52.110Z,3.75
2022-12-05T02:24:52.089Z,3.75
2022-12-05T02:25:52.127Z,3.75
2022-12-05T02:26:52.087Z,3.72
2022-12-05T02:27:52.062Z,3.72
2022-12-05T02:28:52.068Z,3.75
2022-12-05T02:29:52.040Z,3.72
2022-12-05T02:30:52.040Z,3.76
2022-12-05T02:31:52.280Z,3.76
2022-12-05T02:32:51.991Z,3.78
2022-12-05T02:33:52.017Z,3.78
2022-12-05T02:34:51.962Z,3.76
2022-12-05T02:35:51.989Z,3.76
2022-12-05T02:36:52.169Z,3.78
2022-12-05T02:37:51.952Z,3.79
2022-12-05T02:38:51.955Z,3.80
2022-12-05T02:39:51.923Z,3.79
2022-12-05T02:40:51.893Z,3.80
2022-12-05T02:41:51.922Z,3.78
2022-12-05T02:42:51.918Z,3.78
2022-12-05T02:43:51.880Z,3.79
2022-12-05T02:44:52.054Z,3.78
2022-12-05T02:45:51.898Z,3.76
2022-12-05T02:46:51.861Z,3.78
2022-12-05T02:47:51.830Z,3.78
2022-12-05T02:48:51.841Z,3.76
2022-12-05T02:49:51.831Z,3.78
2022-12-05T02:50:51.804Z,3.78
2022-12-05T02:51:51.986Z,3.78
2022-12-05T02:52:51.755Z,3.76
2022-12-05T02:53:51.763Z,3.75
2022-12-05T02:54:51.761Z,3.76
2022-12-05T02:55:51.761Z,3.72
2022-12-05T02:56:51.754Z,3.75
2022-12-05T02:57:51.714Z,3.75
2022-12-05T02:58:51.723Z,3.72
2022-12-05T02:59:51.905Z,3.72
2022-12-05T03:00:51.727Z,3.70
2022-12-05T03:01:51.760Z,3.70
2022-12-05T03:02:51.684Z,3.71
2022-12-05T03:03:51.698Z,3.71
2022-12-05T03:04:51.882Z,3.71
2022-12-05T03:05:51.651Z,3.68
2022-12-05T03:06:51.632Z,3.70
2022-12-05T03:07:51.655Z,3.71
2022-12-05T03:08:51.584Z,3.72
2022-12-05T03:09:51.906Z,3.72
2022-12-05T03:10:51.546Z,3.75
2022-12-05T03:11:51.556Z,3.72
2022-12-05T03:12:51.582Z,3.76
2022-12-05T03:13:51.562Z,3.76
2022-12-05T03:14:51.533Z,3.75
2022-12-05T03:15:51.536Z,3.75
2022-12-05T03:16:51.533Z,3.75
2022-12-05T03:17:51.486Z,3.78
2022-12-05T03:18:51.705Z,3.78
2022-12-05T03:19:51.494Z,3.78
2022-12-05T03:20:51.486Z,3.78
2022-12-05T03:21:51.787Z,3.79
2022-12-05T03:22:51.409Z,3.79
2022-12-05T03:23:51.434Z,3.78
2022-12-05T03:24:51.388Z,3.79
2022-12-05T03:25:51.398Z,3.78
2022-12-05T03:26:51.371Z,3.78
2022-12-05T03:27:51.706Z,3.76
2022-12-05T03:28:51.349Z,3.76
2022-12-05T03:29:51.348Z,3.76
2022-12-05T03:30:51.382Z,3.75
2022-12-05T03:31:51.364Z,3.72
2022-12-05T03:32:51.547Z,3.72
2022-12-05T03:33:51.338Z,3.75
2022-12-05T03:34:51.499Z,3.72
2022-12-05T03:35:51.271Z,3.71
2022-12-05T03:36:51.278Z,3.71
2022-12-05T03:37:51.244Z,3.72
2022-12-05T03:38:51.249Z,3.75
2022-12-05T03:39:51.258Z,3.75
2022-12-05T03:40:51.441Z,3.72
2022-12-05T03:41:51.226Z,3.72
2022-12-05T03:42:51.228Z,3.72
2022-12-05T03:43:51.171Z,3.72
2022-12-05T03:44:51.197Z,3.72
2022-12-05T03:45:51.445Z,3.72
2022-12-05T03:46:51.150Z,3.70
2022-12-05T03:47:51.132Z,3.70
2022-12-05T03:48:51.367Z,3.71
2022-12-05T03:49:51.138Z,3.70
2022-12-05T03:50:51.137Z,3.70
2022-12-05T03:51:51.120Z,3.67
2022-12-05T03:53:18.612Z,3.67
2022-12-05T03:53:52.088Z,3.67
2022-12-05T03:54:51.072Z,3.67
2022-12-05T03:55:51.075Z,3.65
2022-12-05T03:56:51.042Z,3.64
2022-12-05T03:57:51.488Z,3.64
2022-12-05T03:58:51.048Z,3.67
2022-12-05T03:59:50.993Z,3.67
2022-12-05T04:00:51.027Z,3.67
2022-12-05T04:01:51.102Z,3.67
2022-12-05T04:02:50.998Z,3.68
2022-12-05T04:03:51.419Z,3.68
2022-12-05T04:04:50.950Z,3.67
2022-12-05T04:05:50.949Z,3.70
2022-12-05T04:06:50.923Z,3.68
2022-12-05T04:07:50.971Z,3.70
2022-12-05T04:08:51.145Z,3.70
2022-12-05T04:09:50.884Z,3.70
2022-12-05T04:10:50.874Z,3.71
2022-12-05T04:11:50.854Z,3.72
2022-12-05T04:12:50.855Z,3.72
2022-12-05T04:13:51.193Z,3.71
2022-12-05T04:14:50.833Z,3.70
2022-12-05T04:15:50.875Z,3.67
2022-12-05T04:16:51.013Z,3.70
2022-12-05T04:17:53.760Z,3.68
2022-12-05T04:18:50.784Z,3.70
2022-12-05T04:19:50.764Z,3.71
2022-12-05T04:20:50.794Z,3.70
2022-12-05T04:21:50.945Z,3.70
2022-12-05T04:22:50.761Z,3.68
2022-12-05T04:23:50.715Z,3.68
2022-12-05T04:24:50.715Z,3.68
2022-12-05T04:25:50.723Z,3.68
2022-12-05T04:26:51.045Z,3.67
2022-12-05T04:27:50.666Z,3.68
2022-12-05T04:28:50.675Z,3.68
2022-12-05T04:29:50.649Z,3.67
2022-12-05T04:30:50.732Z,3.67
2022-12-05T04:31:50.627Z,3.67
2022-12-05T04:32:51.012Z,3.67
2022-12-05T04:33:50.623Z,3.65
2022-12-05T04:34:50.607Z,3.64
2022-12-05T04:35:50.935Z,3.65
2022-12-05T04:36:50.616Z,3.65
2022-12-05T04:37:50.595Z,3.64
2022-12-05T04:38:50.556Z,3.67
2022-12-05T04:39:50.563Z,3.67
2022-12-05T04:40:51.042Z,3.67
2022-12-05T04:41:50.516Z,3.67
2022-12-05T04:42:50.535Z,3.67
2022-12-05T04:43:50.488Z,3.68
2022-12-05T04:44:50.513Z,3.68
2022-12-05T04:45:50.728Z,3.67
2022-12-05T04:46:50.508Z,3.65
2022-12-05T04:47:50.438Z,3.67
2022-12-05T04:48:50.437Z,3.65
2022-12-05T04:49:53.710Z,3.67
2022-12-05T04:50:50.418Z,3.65
2022-12-05T04:51:50.418Z,3.65
2022-12-05T04:52:50.424Z,3.64
2022-12-05T04:53:50.378Z,3.62
2022-12-05T04:54:50.376Z,3.64
2022-12-05T04:55:50.351Z,3.62
2022-12-05T04:56:50.350Z,3.64
2022-12-05T04:57:50.564Z,3.62
2022-12-05T04:58:50.358Z,3.62
2022-12-05T04:59:50.338Z,3.62
2022-12-05T05:00:50.309Z,3.62
2022-12-05T05:01:50.340Z,3.61
2022-12-05T05:02:50.334Z,3.62
2022-12-05T05:03:50.580Z,3.62
2022-12-05T05:04:50.289Z,3.61
2022-12-05T05:05:50.231Z,3.62
2022-12-05T05:06:50.466Z,3.61
2022-12-05T05:07:50.312Z,3.60
2022-12-05T05:08:50.240Z,3.61
2022-12-05T05:09:50.225Z,3.61
2022-12-05T05:10:50.215Z,3.60
2022-12-05T05:11:50.197Z,3.60
2022-12-05T05:12:50.542Z,3.61
2022-12-05T05:13:50.177Z,3.58
2022-12-05T05:14:50.146Z,3.60
2022-12-05T05:15:50.202Z,3.58
2022-12-05T05:16:50.121Z,3.57
2022-12-05T05:17:50.131Z,3.57
2022-12-05T05:18:50.308Z,3.57
2022-12-05T05:19:50.099Z,3.57
2022-12-05T05:20:50.101Z,3.58
2022-12-05T05:21:50.263Z,3.60
2022-12-05T05:22:50.052Z,3.58
2022-12-05T05:23:50.028Z,3.58
2022-12-05T05:24:50.259Z,3.58
2022-12-05T05:25:50.051Z,3.57
2022-12-05T05:26:55.540Z,3.57
2022-12-05T05:27:51.012Z,3.54
2022-12-05T05:28:49.983Z,3.53
2022-12-05T05:29:49.991Z,3.54
2022-12-05T05:30:50.549Z,3.54
2022-12-05T05:31:49.996Z,3.54
2022-12-05T05:32:49.948Z,3.54
2022-12-05T05:33:50.151Z,3.57
2022-12-05T05:34:49.946Z,3.53
2022-12-05T05:35:49.921Z,3.52
2022-12-05T05:36:49.918Z,3.50
2022-12-05T05:37:49.868Z,3.49
2022-12-05T05:38:50.112Z,3.47
2022-12-05T05:39:49.872Z,3.49
2022-12-05T05:40:49.845Z,3.52
2022-12-05T05:41:49.846Z,3.50
2022-12-05T05:42:49.851Z,3.50
2022-12-05T05:43:50.097Z,3.49
2022-12-05T05:44:49.812Z,3.47
2022-12-05T05:45:49.777Z,3.47
2022-12-05T05:46:49.845Z,3.44
2022-12-05T05:47:49.956Z,3.44
2022-12-05T05:48:49.965Z,3.44
2022-12-05T05:49:49.753Z,3.46
2022-12-05T05:50:49.759Z,3.49
2022-12-05T05:51:49.744Z,3.47
2022-12-05T05:52:49.734Z,3.49
2022-12-05T05:53:49.689Z,3.47
2022-12-05T05:54:49.844Z,3.49
2022-12-05T05:55:49.895Z,3.50
2022-12-05T05:56:49.667Z,3.52
2022-12-05T05:57:49.637Z,3.52
2022-12-05T05:58:49.665Z,3.50
2022-12-05T05:59:49.618Z,3.50
2022-12-05T06:00:49.882Z,3.49
2022-12-05T06:01:49.834Z,3.47
2022-12-05T06:02:49.711Z,3.47
2022-12-05T06:03:49.689Z,3.44
2022-12-05T06:04:49.602Z,3.43
2022-12-05T06:05:53.099Z,3.43
2022-12-05T06:06:49.805Z,3.43
2022-12-05T06:07:49.584Z,3.42
2022-12-05T06:08:49.533Z,3.40
2022-12-05T06:09:49.525Z,3.42
2022-12-05T06:10:49.525Z,3.40
2022-12-05T06:11:49.479Z,3.44
2022-12-05T06:12:49.687Z,3.42
2022-12-05T06:13:49.485Z,3.43
2022-12-05T06:14:49.487Z,3.43
2022-12-05T06:15:49.439Z,3.43
2022-12-05T06:16:49.492Z,3.39
2022-12-05T06:17:49.420Z,3.40
2022-12-05T06:18:49.623Z,3.40
2022-12-05T06:19:49.391Z,3.39
2022-12-05T06:20:49.599Z,3.39
2022-12-05T06:21:49.371Z,3.42
2022-12-05T06:22:49.374Z,3.40
2022-12-05T06:23:49.345Z,3.40
2022-12-05T06:24:49.368Z,3.39
2022-12-05T06:25:49.545Z,3.40
2022-12-05T06:26:49.348Z,3.40
2022-12-05T06:27:49.648Z,3.42
2022-12-05T06:28:49.327Z,3.39
2022-12-05T06:29:49.271Z,3.36
2022-12-05T06:30:49.307Z,3.36
2022-12-05T06:31:49.344Z,3.39
2022-12-05T06:32:49.261Z,3.39
2022-12-05T06:33:49.233Z,3.40
2022-12-05T06:34:49.231Z,3.39
2022-12-05T06:35:49.532Z,3.36
2022-12-05T06:36:49.234Z,3.40
2022-12-05T06:37:49.219Z,3.39
2022-12-05T06:38:49.211Z,3.39
2022-12-05T06:39:49.186Z,3.42
2022-12-05T06:40:49.408Z,3.42
2022-12-05T06:41:49.143Z,3.42
2022-12-05T06:42:49.167Z,3.43
2022-12-05T06:43:49.143Z,3.43
2022-12-05T06:44:49.140Z,3.43
2022-12-05T06:45:49.164Z,3.43
2022-12-05T06:46:49.146Z,3.44
2022-12-05T06:47:49.063Z,3.43
2022-12-05T06:48:49.100Z,3.43
2022-12-05T06:49:49.055Z,3.42
2022-12-05T06:50:49.084Z,3.46
2022-12-05T06:51:49.224Z,3.46
2022-12-05T06:52:49.024Z,3.44
2022-12-05T06:53:49.032Z,3.44
2022-12-05T06:54:49.001Z,3.43
2022-12-05T06:55:49.012Z,3.43
2022-12-05T06:56:49.011Z,3.42
2022-12-05T06:57:49.163Z,3.43
2022-12-05T06:58:48.964Z,3.44
2022-12-05T06:59:48.990Z,3.43
2022-12-05T07:00:48.965Z,3.43
2022-12-05T07:01:49.302Z,3.44
2022-12-05T07:02:49.328Z,3.47
2022-12-05T07:03:48.926Z,3.47
2022-12-05T07:04:49.005Z,3.44
2022-12-05T07:05:49.175Z,3.44
2022-12-05T07:06:50.873Z,3.42
2022-12-05T07:07:48.910Z,3.43
2022-12-05T07:08:48.855Z,3.43
2022-12-05T07:09:48.816Z,3.44
2022-12-05T07:10:48.846Z,3.44
2022-12-05T07:11:49.016Z,3.46
2022-12-05T07:12:48.822Z,3.44
2022-12-05T07:13:48.803Z,3.42
2022-12-05T07:14:49.904Z,3.43
2022-12-05T07:15:48.746Z,3.42
2022-12-05T07:16:48.826Z,3.42
2022-12-05T07:17:48.992Z,3.42
2022-12-05T07:18:48.728Z,3.42
2022-12-05T07:19:48.725Z,3.42
2022-12-05T07:21:11.306Z,3.42
2022-12-05T07:21:49.704Z,3.42
2022-12-05T07:22:49.053Z,3.42
2022-12-05T07:23:49.008Z,3.39
2022-12-05T07:24:48.654Z,3.36
2022-12-05T07:25:48.655Z,3.33
2022-12-05T07:26:48.629Z,3.33
2022-12-05T07:27:48.609Z,3.33
2022-12-05T07:28:48.644Z,3.31
2022-12-05T07:29:48.922Z,3.31
2022-12-05T07:30:48.588Z,3.34
2022-12-05T07:31:48.648Z,3.31
2022-12-05T07:32:48.906Z,3.33
2022-12-05T07:33:48.566Z,3.33
2022-12-05T07:34:53.507Z,3.36
2022-12-05T07:35:49.518Z,3.34
2022-12-05T07:36:48.576Z,3.33
2022-12-05T07:37:48.490Z,3.34
2022-12-05T07:38:48.525Z,3.31
2022-12-05T07:39:48.469Z,3.31
2022-12-05T07:40:48.470Z,3.31
2022-12-05T07:41:48.450Z,3.31
2022-12-05T07:42:48.499Z,3.31
2022-12-05T07:43:48.423Z,3.39
2022-12-05T07:44:48.456Z,3.39
2022-12-05T07:45:48.445Z,3.36
2022-12-05T07:46:48.421Z,3.39
2022-12-05T07:47:48.449Z,3.40
2022-12-05T07:48:48.380Z,3.39
2022-12-05T07:49:48.379Z,3.40
2022-12-05T07:50:48.369Z,3.39
2022-12-05T07:51:48.376Z,3.42
2022-12-05T07:52:48.468Z,3.40
2022-12-05T07:53:48.348Z,3.39
2022-12-05T07:54:48.491Z,3.39
2022-12-05T07:55:48.302Z,3.39
2022-12-05T07:56:48.351Z,3.36
2022-12-05T07:57:48.349Z,3.36
2022-12-05T07:58:48.279Z,3.36
2022-12-05T07:59:48.579Z,3.34
2022-12-05T08:00:48.246Z,3.34
2022-12-05T08:01:48.384Z,3.34
2022-12-05T08:02:48.466Z,3.34
2022-12-05T08:03:48.240Z,3.34
2022-12-05T08:04:48.182Z,3.34
2022-12-05T08:05:48.207Z,3.36
2022-12-05T08:06:48.211Z,3.33
2022-12-05T08:07:48.239Z,3.33
2022-12-05T08:08:48.145Z,3.33
2022-12-05T08:09:48.172Z,3.34
2022-12-05T08:10:48.142Z,3.31
2022-12-05T08:11:52.365Z,3.31
2022-12-05T08:12:48.120Z,3.30
2022-12-05T08:14:44.151Z,3.27
2022-12-05T08:15:44.169Z,3.27
2022-12-05T08:16:44.206Z,3.25
2022-12-05T08:17:44.093Z,3.24
2022-12-05T08:18:44.111Z,3.24
2022-12-05T08:19:44.291Z,3.21
2022-12-05T08:20:44.072Z,3.20
2022-12-05T08:21:44.072Z,3.20
2022-12-05T08:22:44.050Z,3.18
2022-12-05T08:23:44.023Z,3.16
2022-12-05T08:24:44.260Z,3.15
2022-12-05T08:25:44.534Z,3.10
2022-12-05T08:26:43.993Z,3.10
2022-12-05T08:27:43.991Z,3.10
2022-12-05T08:28:43.963Z,3.12
2022-12-05T08:29:44.283Z,3.13
2022-12-05T08:30:43.991Z,3.12
2022-12-05T08:31:43.924Z,3.15
2022-12-05T08:32:43.924Z,3.15
2022-12-05T08:33:43.924Z,3.15
2022-12-05T08:34:43.906Z,3.15
2022-12-05T08:35:43.886Z,3.13
2022-12-05T08:36:43.902Z,3.13
2022-12-05T08:37:43.847Z,3.16
2022-12-05T08:38:43.893Z,3.16
2022-12-05T08:39:43.852Z,3.16
2022-12-05T08:40:43.827Z,3.13
2022-12-05T08:41:44.385Z,3.13
2022-12-05T08:42:43.806Z,3.12
2022-12-05T08:43:43.778Z,3.13
2022-12-05T08:44:43.786Z,3.10
2022-12-05T08:45:43.808Z,3.12
2022-12-05T08:46:43.809Z,3.13
2022-12-05T08:47:43.973Z,3.13
2022-12-05T08:48:43.737Z,3.13
2022-12-05T08:49:44.017Z,3.10
2022-12-05T08:50:43.743Z,3.12
2022-12-05T08:51:43.727Z,3.12
2022-12-05T08:52:43.724Z,3.15
2022-12-05T08:53:44.857Z,3.16
2022-12-05T08:54:43.886Z,3.18
2022-12-05T08:55:43.649Z,3.18
2022-12-05T08:56:43.671Z,3.21
2022-12-05T08:57:43.644Z,3.20
2022-12-05T08:58:43.653Z,3.18
2022-12-05T08:59:43.624Z,3.18
2022-12-05T09:00:43.852Z,3.18
2022-12-05T09:01:43.645Z,3.18
2022-12-05T09:02:43.593Z,3.21
2022-12-05T09:03:47.753Z,3.21
2022-12-05T09:04:43.548Z,3.21
2022-12-05T09:05:43.527Z,3.21
2022-12-05T09:06:43.766Z,3.21
2022-12-05T09:07:43.538Z,3.23
2022-12-05T09:08:43.525Z,3.23
2022-12-05T09:09:43.482Z,3.23
2022-12-05T09:10:43.488Z,3.24
2022-12-05T09:11:43.479Z,3.25
2022-12-05T09:12:43.459Z,3.23
2022-12-05T09:13:43.439Z,3.25
2022-12-05T09:14:43.439Z,3.24
2022-12-05T09:15:43.450Z,3.24
2022-12-05T09:16:43.419Z,3.25
2022-12-05T09:17:43.600Z,3.25
2022-12-05T09:18:43.390Z,3.25
2022-12-05T09:19:43.396Z,3.25
2022-12-05T09:20:43.390Z,3.25
2022-12-05T09:21:43.378Z,3.27
2022-12-05T09:22:43.374Z,3.27
2022-12-05T09:23:43.370Z,3.27
2022-12-05T09:24:43.399Z,3.27
2022-12-05T09:25:43.301Z,3.27
2022-12-05T09:26:43.308Z,3.27
2022-12-05T09:27:43.280Z,3.27
2022-12-05T09:28:43.304Z,3.28
2022-12-05T09:29:43.287Z,3.28
2022-12-05T09:30:43.287Z,3.28
2022-12-05T09:31:48.194Z,3.30
2022-12-05T09:32:43.260Z,3.30
2022-12-05T09:33:43.223Z,3.30
2022-12-05T09:34:43.213Z,3.30
2022-12-05T09:35:43.267Z,3.30
2022-12-05T09:36:43.421Z,3.30
2022-12-05T09:37:43.161Z,3.30
2022-12-05T09:38:43.208Z,3.33
2022-12-05T09:39:43.169Z,3.33
2022-12-05T09:40:43.514Z,3.34
2022-12-05T09:41:43.157Z,3.34
2022-12-05T09:42:43.112Z,3.40
2022-12-05T09:43:43.143Z,3.42
2022-12-05T09:44:43.105Z,3.44
2022-12-05T09:45:43.073Z,3.44
2022-12-05T09:46:43.123Z,3.47
2022-12-05T09:47:43.054Z,3.49
2022-12-05T09:48:43.070Z,3.47
2022-12-05T09:49:43.270Z,3.46
2022-12-05T09:50:43.082Z,3.49
2022-12-05T09:51:43.004Z,3.49
2022-12-05T09:52:43.005Z,3.52
2022-12-05T09:53:43.003Z,3.53
2022-12-05T09:54:43.010Z,3.52
2022-12-05T09:55:42.984Z,3.53
2022-12-05T09:56:42.974Z,3.54
2022-12-05T09:57:42.934Z,3.54
2022-12-05T09:58:43.003Z,3.53
2022-12-05T09:59:42.913Z,3.53
2022-12-05T10:00:43.153Z,3.53
2022-12-05T10:01:42.938Z,3.54
2022-12-05T10:02:42.893Z,3.57
2022-12-05T10:03:42.923Z,3.54
2022-12-05T10:04:42.944Z,3.58
2022-12-05T10:05:42.889Z,3.57
2022-12-05T10:06:42.846Z,3.58
2022-12-05T10:07:42.890Z,3.61
2022-12-05T10:08:42.851Z,3.60
2022-12-05T10:09:42.826Z,3.62
2022-12-05T10:10:42.823Z,3.60
2022-12-05T10:11:42.796Z,3.60
2022-12-05T10:12:42.813Z,3.60
2022-12-05T10:13:42.773Z,3.60
2022-12-05T10:14:42.758Z,3.60
2022-12-05T10:15:45.482Z,3.60
2022-12-05T10:16:42.799Z,3.60
2022-12-05T10:17:42.699Z,3.60
2022-12-05T10:18:42.734Z,3.61
2022-12-05T10:19:42.714Z,3.60
2022-12-05T10:20:42.912Z,3.58
2022-12-05T10:21:42.713Z,3.57
2022-12-05T10:22:42.684Z,3.57
2022-12-05T10:23:56.980Z,3.57
2022-12-05T10:24:43.661Z,3.54
2022-12-05T10:25:42.644Z,3.53
2022-12-05T10:26:42.666Z,3.52
2022-12-05T10:27:42.588Z,3.53
2022-12-05T10:28:42.589Z,3.53
2022-12-05T10:29:42.573Z,3.50
2022-12-05T10:30:42.606Z,3.47
2022-12-05T10:31:42.646Z,3.50
2022-12-05T10:32:42.876Z,3.54
2022-12-05T10:33:42.577Z,3.57
2022-12-05T10:34:42.520Z,3.57
2022-12-05T10:35:42.527Z,3.58
2022-12-05T10:36:42.546Z,3.60
2022-12-05T10:37:42.470Z,3.58
2022-12-05T10:38:42.513Z,3.57
2022-12-05T10:39:42.477Z,3.47
2022-12-05T10:40:42.483Z,3.42
2022-12-05T10:41:42.476Z,3.36
2022-12-05T10:42:42.457Z,3.39
2022-12-05T10:43:42.427Z,3.39
2022-12-05T10:44:42.407Z,3.31
2022-12-05T10:45:42.407Z,3.27
2022-12-05T10:46:42.427Z,3.27
2022-12-05T10:47:42.571Z,3.28
2022-12-05T10:48:42.397Z,3.25
2022-12-05T10:49:42.577Z,3.23
2022-12-05T10:50:42.359Z,3.15
2022-12-05T10:51:42.338Z,3.13
2022-12-05T10:52:42.318Z,3.10
2022-12-05T10:53:42.319Z,3.12
2022-12-05T10:54:42.326Z,3.12
2022-12-05T10:55:59.922Z,3.13
2022-12-05T10:56:43.298Z,3.12
2022-12-05T10:57:42.285Z,3.12
2022-12-05T10:58:42.269Z,3.16
2022-12-05T10:59:42.223Z,3.18
2022-12-05T11:00:42.423Z,3.16
2022-12-05T11:01:42.303Z,3.16
2022-12-05T11:02:42.541Z,3.21
2022-12-05T11:03:42.174Z,3.23
2022-12-05T11:04:42.216Z,3.24
2022-12-05T11:05:42.330Z,3.25
2022-12-05T11:06:42.186Z,3.27
2022-12-05T11:07:42.231Z,3.30
2022-12-05T11:09:03.648Z,3.33
2022-12-05T11:09:43.151Z,3.34
2022-12-05T11:10:42.130Z,3.36
2022-12-05T11:11:42.113Z,3.33
2022-12-05T11:12:42.112Z,3.28
2022-12-05T11:13:42.057Z,3.28
2022-12-05T11:14:42.062Z,3.28
2022-12-05T11:15:42.132Z,3.30
2022-12-05T11:16:42.122Z,3.31
2022-12-05T11:17:42.041Z,3.30
2022-12-05T11:18:42.042Z,3.24
2022-12-05T11:19:42.021Z,3.27
2022-12-05T11:20:42.023Z,3.28
2022-12-05T11:21:42.194Z,3.30
2022-12-05T11:22:45.755Z,3.30
2022-12-05T11:23:42.972Z,3.27
2022-12-05T11:24:41.946Z,3.25
2022-12-05T11:25:42.142Z,3.24
2022-12-05T11:26:41.943Z,3.24
2022-12-05T11:27:41.922Z,3.24
2022-12-05T11:28:41.904Z,3.25
2022-12-05T11:29:41.903Z,3.24
2022-12-05T11:30:41.930Z,3.25
2022-12-05T11:31:41.931Z,3.24
2022-12-05T11:32:41.858Z,3.25
2022-12-05T11:33:41.862Z,3.27
2022-12-05T11:34:41.856Z,3.25
2022-12-05T11:35:41.814Z,3.24
2022-12-05T11:36:42.096Z,3.23
2022-12-05T11:37:41.817Z,3.23
2022-12-05T11:38:41.787Z,3.23
2022-12-05T11:39:41.758Z,3.25
2022-12-05T11:40:41.767Z,3.27
2022-12-05T11:41:41.765Z,3.25
2022-12-05T11:42:41.787Z,3.21
2022-12-05T11:43:41.735Z,3.15
2022-12-05T11:44:41.735Z,3.10
2022-12-05T11:45:41.715Z,3.07
2022-12-05T11:46:41.793Z,3.02
2022-12-05T11:47:41.666Z,3.02
2022-12-05T11:48:41.680Z,3.00
2022-12-05T11:49:41.642Z,2.97
2022-12-05T11:50:41.649Z,2.97
2022-12-05T11:51:41.839Z,2.97
2022-12-05T11:52:41.619Z,2.98
2022-12-05T11:53:41.599Z,3.00
2022-12-05T11:55:04.575Z,2.98
2022-12-05T11:55:42.909Z,2.98
2022-12-05T11:56:41.582Z,2.98
2022-12-05T11:57:41.550Z,2.95
2022-12-05T11:58:41.589Z,2.95
2022-12-05T11:59:41.530Z,2.95
2022-12-05T12:00:41.927Z,2.94
2022-12-05T12:01:41.582Z,2.97
2022-12-05T12:02:41.661Z,2.98
2022-12-05T12:03:41.583Z,3.00
2022-12-05T12:04:41.522Z,2.98
2022-12-05T12:05:41.788Z,2.97
2022-12-05T12:06:41.494Z,2.95
2022-12-05T12:07:41.534Z,2.92
2022-12-05T12:08:41.442Z,2.91
2022-12-05T12:09:41.422Z,2.88
2022-12-05T12:10:41.429Z,2.91
2022-12-05T12:11:41.411Z,2.91
2022-12-05T12:12:41.402Z,2.92
2022-12-05T12:13:41.373Z,2.91
2022-12-05T12:14:41.371Z,2.94
2022-12-05T12:15:41.379Z,2.95
2022-12-05T12:16:41.646Z,2.97
2022-12-05T12:17:41.356Z,3.00
2022-12-05T12:18:41.332Z,3.02
2022-12-05T12:19:41.322Z,3.02
2022-12-05T12:20:41.312Z,3.00
2022-12-05T12:21:41.528Z,2.98
2022-12-05T12:22:41.317Z,2.97
2022-12-05T12:23:41.289Z,2.95
2022-12-05T12:24:41.269Z,2.95
2022-12-05T12:25:41.269Z,2.95
2022-12-05T12:26:41.241Z,2.94
2022-12-05T12:27:41.451Z,2.95
2022-12-05T12:28:41.217Z,2.92
2022-12-05T12:29:43.182Z,2.91
2022-12-05T12:30:41.438Z,2.92
2022-12-05T12:31:41.240Z,2.94
2022-12-05T12:32:41.192Z,2.91
2022-12-05T12:33:41.174Z,2.89
2022-12-05T12:34:41.170Z,2.88
2022-12-05T12:35:41.152Z,2.89
2022-12-05T12:36:41.354Z,2.91
2022-12-05T12:37:41.128Z,2.89
2022-12-05T12:38:41.123Z,2.89
2022-12-05T12:39:41.276Z,2.88
2022-12-05T12:40:41.078Z,2.88
2022-12-05T12:41:41.081Z,2.87
2022-12-05T12:42:41.602Z,2.88
2022-12-05T12:43:56.318Z,2.87
2022-12-05T12:44:42.024Z,2.87
2022-12-05T12:45:41.093Z,2.85
2022-12-05T12:46:41.225Z,2.85
2022-12-05T12:47:40.996Z,2.85
2022-12-05T12:48:40.966Z,2.84
2022-12-05T12:49:41.001Z,2.82
2022-12-05T12:50:43.752Z,2.82
2022-12-05T12:51:41.013Z,2.81
2022-12-05T12:52:41.572Z,2.82
2022-12-05T12:53:40.927Z,2.82
2022-12-05T12:55:02.771Z,2.81
2022-12-05T12:55:41.933Z,2.77
2022-12-05T12:56:40.888Z,2.76
2022-12-05T12:57:40.894Z,2.74
2022-12-05T12:58:40.903Z,2.76
2022-12-05T12:59:41.067Z,2.73
2022-12-05T13:00:40.980Z,2.73
2022-12-05T13:01:40.945Z,2.74
2022-12-05T13:02:40.891Z,2.73
2022-12-05T13:03:40.841Z,2.69
2022-12-05T13:04:40.818Z,2.69
2022-12-05T13:05:41.008Z,2.67
2022-12-05T13:06:40.967Z,2.69
2022-12-05T13:07:40.827Z,2.67
2022-12-05T13:08:40.773Z,2.66
2022-12-05T13:09:40.774Z,2.63
2022-12-05T13:10:40.780Z,2.59
2022-12-05T13:11:40.729Z,2.59
2022-12-05T13:12:41.319Z,2.58
2022-12-05T13:13:40.700Z,2.56
2022-12-05T13:14:40.677Z,2.56
2022-12-05T13:15:41.032Z,2.55
2022-12-05T13:16:45.498Z,2.56
2022-12-05T13:17:41.676Z,2.55
2022-12-05T13:18:40.630Z,2.51
2022-12-05T13:19:40.666Z,2.52
2022-12-05T13:20:40.611Z,2.46